createdAt,value
2023-05-06T00:03:29.494Z,1.10
2023-05-06T00:07:42.632Z,0.93
2023-05-06T00:11:55.095Z,1.75
2023-05-06T00:16:07.711Z,0.95
2023-05-06T00:20:20.177Z,1.42
2023-05-06T00:24:32.669Z,0.80
2023-05-06T00:28:45.197Z,1.30
2023-05-06T00:32:57.817Z,0.70
2023-05-06T00:37:10.302Z,1.17
2023-05-06T00:41:22.778Z,0.90
2023-05-06T00:45:35.598Z,0.98
2023-05-06T00:49:48.897Z,1.15
2023-05-06T00:54:02.661Z,0.95
2023-05-06T00:58:15.825Z,0.95
2023-05-06T01:02:39.665Z,0.95
2023-05-06T01:07:13.406Z,0.77
2023-05-06T01:11:44.501Z,0.82
2023-05-06T01:16:00.201Z,0.93
2023-05-06T01:20:14.139Z,0.80
2023-05-06T01:24:42.218Z,0.93
2023-05-06T01:28:55.661Z,0.90
2023-05-06T01:33:37.225Z,1.02
2023-05-06T01:38:23.122Z,1.05
2023-05-06T01:42:37.039Z,1.20
2023-05-06T01:46:50.823Z,1.10
2023-05-06T01:51:04.061Z,1.50
2023-05-06T01:55:16.677Z,1.27
2023-05-06T01:59:29.710Z,1.58
2023-05-06T02:03:42.667Z,1.30
2023-05-06T02:07:55.186Z,1.50
2023-05-06T02:12:07.674Z,1.33
2023-05-06T02:16:20.298Z,1.35
2023-05-06T02:20:32.757Z,1.20
2023-05-06T02:24:54.105Z,1.35
2023-05-06T02:29:06.721Z,1.30
2023-05-06T02:33:19.163Z,1.70
2023-05-06T02:37:31.599Z,1.15
2023-05-06T02:41:44.038Z,1.25
2023-05-06T02:45:56.522Z,1.38
2023-05-06T02:50:09.316Z,1.00
2023-05-06T02:54:27.976Z,1.30
2023-05-06T02:58:40.394Z,1.15
2023-05-06T03:02:52.915Z,1.02
2023-05-06T03:07:05.375Z,0.98
2023-05-06T03:11:17.774Z,1.20
2023-05-06T03:15:30.310Z,1.13
2023-05-06T03:19:42.799Z,1.20
2023-05-06T03:23:55.284Z,1.20
2023-05-06T03:28:07.737Z,1.40
2023-05-06T03:32:29.082Z,1.08
2023-05-06T03:36:41.616Z,1.55
2023-05-06T03:40:55.004Z,1.33
2023-05-06T03:45:08.819Z,1.73
2023-05-06T03:49:21.866Z,1.63
2023-05-06T03:53:34.425Z,1.80
2023-05-06T03:57:46.975Z,1.15
2023-05-06T04:02:00.019Z,1.08
2023-05-06T04:06:12.597Z,1.17
2023-05-06T04:10:25.481Z,1.27
2023-05-06T04:14:37.926Z,1.55
2023-05-06T04:18:52.317Z,1.27
2023-05-06T04:23:05.133Z,1.58
2023-05-06T04:27:17.845Z,1.58
2023-05-06T04:31:30.357Z,1.70
2023-05-06T04:35:53.932Z,1.33
2023-05-06T04:40:10.058Z,1.67
2023-05-06T04:44:23.183Z,1.35
2023-05-06T04:48:36.121Z,1.70
2023-05-06T04:52:48.627Z,1.75
2023-05-06T04:57:01.718Z,1.70
2023-05-06T05:01:14.178Z,1.70
2023-05-06T05:05:28.512Z,1.52
2023-05-06T05:09:40.989Z,1.80
2023-05-06T05:13:55.391Z,2.20
2023-05-06T05:18:09.730Z,2.10
2023-05-06T05:22:22.230Z,2.03
2023-05-06T05:26:34.663Z,2.15
2023-05-06T05:30:47.332Z,2.03
2023-05-06T05:34:59.860Z,1.95
2023-05-06T05:39:12.323Z,2.13
2023-05-06T05:43:26.784Z,2.25
2023-05-06T05:47:40.202Z,2.03
2023-05-06T05:51:52.658Z,1.98
2023-05-06T05:56:05.439Z,2.15
2023-05-06T06:00:18.584Z,2.00
2023-05-06T06:04:31.668Z,2.53
2023-05-06T06:08:44.256Z,2.47
2023-05-06T06:12:56.891Z,2.53
2023-05-06T06:17:19.411Z,2.17
2023-05-06T06:21:41.892Z,2.60
2023-05-06T06:25:54.339Z,2.42
2023-05-06T06:30:07.847Z,2.63
2023-05-06T06:34:20.330Z,2.50
2023-05-06T06:38:32.864Z,2.40
2023-05-06T06:42:45.404Z,2.92
2023-05-06T06:46:57.913Z,3.00
2023-05-06T06:51:10.717Z,2.42
2023-05-06T06:55:23.281Z,2.50
2023-05-06T06:59:35.868Z,3.08
2023-05-06T07:03:48.446Z,2.58
2023-05-06T07:08:00.997Z,2.97
2023-05-06T07:12:13.564Z,2.92
2023-05-06T07:16:26.081Z,4.00
2023-05-06T07:20:38.535Z,3.90
2023-05-06T07:24:50.959Z,4.10
2023-05-06T07:29:04.963Z,4.70
2023-05-06T07:33:17.431Z,3.63
2023-05-06T07:37:29.854Z,2.92
2023-05-06T07:41:42.300Z,3.25
2023-05-06T07:46:03.044Z,3.38
2023-05-06T07:50:15.525Z,3.33
2023-05-06T07:54:28.746Z,3.40
2023-05-06T07:58:41.321Z,2.55
2023-05-06T08:02:53.940Z,2.90
2023-05-06T08:07:07.586Z,2.53
2023-05-06T08:11:26.538Z,2.50
2023-05-06T08:15:39.890Z,2.60
2023-05-06T08:19:52.377Z,2.53
2023-05-06T08:24:05.209Z,1.90
2023-05-06T08:28:18.142Z,2.67
2023-05-06T08:32:30.790Z,2.10
2023-05-06T08:36:43.917Z,2.20
2023-05-06T08:41:01.707Z,2.25
2023-05-06T08:45:15.742Z,2.30
2023-05-06T08:49:28.477Z,2.72
2023-05-06T08:53:52.786Z,2.40
2023-05-06T08:58:08.411Z,2.17
2023-05-06T09:02:22.632Z,2.28
2023-05-06T09:06:35.250Z,2.13
2023-05-06T09:10:48.377Z,2.20
2023-05-06T09:15:00.896Z,2.28
2023-05-06T09:19:14.874Z,2.08
2023-05-06T09:23:27.541Z,2.17
2023-05-06T09:27:50.014Z,1.90
2023-05-06T09:32:06.722Z,2.08
2023-05-06T09:36:19.490Z,1.92
2023-05-06T09:40:32.571Z,1.40
2023-05-06T09:44:45.790Z,1.40
2023-05-06T09:48:59.416Z,1.20
2023-05-06T09:53:14.092Z,1.33
2023-05-06T09:57:27.089Z,1.23
2023-05-06T10:01:40.455Z,1.20
2023-05-06T10:05:55.304Z,1.40
2023-05-06T10:10:12.282Z,1.20
2023-05-06T10:14:24.805Z,1.83
2023-05-06T10:18:39.402Z,1.25
2023-05-06T10:23:08.085Z,1.40
2023-05-06T10:27:25.640Z,1.77
2023-05-06T10:32:00.261Z,1.23
2023-05-06T10:36:21.267Z,1.00
2023-05-06T10:40:33.753Z,1.33
2023-05-06T10:44:59.897Z,1.10
2023-05-06T10:49:14.561Z,1.30
2023-05-06T10:54:03.539Z,1.00
2023-05-06T10:58:19.924Z,1.02
2023-05-06T11:02:32.781Z,1.38
2023-05-06T11:06:53.848Z,1.00
2023-05-06T11:12:03.489Z,1.30
2023-05-06T11:16:49.502Z,1.05
2023-05-06T11:21:01.892Z,1.00
2023-05-06T11:25:14.585Z,1.10
2023-05-06T11:29:27.825Z,1.00
2023-05-06T11:33:48.541Z,0.80
2023-05-06T11:38:01.448Z,0.90
2023-05-06T11:42:14.003Z,0.85
2023-05-06T11:46:33.990Z,0.80
2023-05-06T11:50:48.678Z,1.02
2023-05-06T11:55:12.769Z,0.60
2023-05-06T11:59:31.406Z,0.82
2023-05-06T12:03:44.012Z,1.10
2023-05-06T12:07:56.714Z,1.60
2023-05-06T12:12:11.274Z,1.25
2023-05-06T12:16:24.972Z,1.30
2023-05-06T12:20:37.596Z,1.30
2023-05-06T12:25:00.194Z,1.10
2023-05-06T12:29:17.606Z,1.00
2023-05-06T12:33:46.168Z,0.70
2023-05-06T12:38:15.187Z,0.90
2023-05-06T12:42:27.845Z,0.90
2023-05-06T12:46:52.351Z,0.80
2023-05-06T12:51:23.717Z,0.80
2023-05-06T12:55:38.649Z,0.98
2023-05-06T12:59:51.407Z,0.90
2023-05-06T13:04:13.838Z,0.90
2023-05-06T13:08:26.517Z,1.08
2023-05-06T13:12:39.092Z,0.90
2023-05-06T13:17:01.825Z,0.68
2023-05-06T13:21:14.849Z,1.00
2023-05-06T13:25:30.699Z,0.95
2023-05-06T13:29:43.270Z,0.90
2023-05-06T13:33:56.710Z,0.60
2023-05-06T13:38:09.133Z,0.80
2023-05-06T13:42:21.628Z,0.90
2023-05-06T13:46:34.149Z,0.90
2023-05-06T13:50:47.791Z,0.70
2023-05-06T13:55:00.319Z,0.77
2023-05-06T13:59:14.742Z,1.00
2023-05-06T14:03:27.829Z,0.70
2023-05-06T14:07:40.612Z,0.90
2023-05-06T14:12:03.635Z,0.70
2023-05-06T14:16:17.389Z,0.93
2023-05-06T14:20:39.881Z,0.70
2023-05-06T14:24:52.362Z,0.82
2023-05-06T14:29:05.031Z,0.60
2023-05-06T14:33:17.586Z,0.75
2023-05-06T14:37:29.989Z,0.98
2023-05-06T14:41:42.415Z,0.80
2023-05-06T14:45:54.978Z,0.80
2023-05-06T14:50:10.160Z,0.90
2023-05-06T14:54:22.619Z,0.80
2023-05-06T14:58:35.083Z,0.85
2023-05-06T15:02:47.651Z,0.90
2023-05-06T15:07:10.183Z,0.68
2023-05-06T15:11:22.789Z,0.65
2023-05-06T15:15:35.483Z,1.00
2023-05-06T15:19:48.439Z,0.85
2023-05-06T15:24:10.869Z,0.70
2023-05-06T15:28:24.727Z,0.73
2023-05-06T15:32:37.403Z,0.85
2023-05-06T15:36:53.137Z,0.60
2023-05-06T15:41:15.680Z,0.70
2023-05-06T15:45:28.328Z,0.70
2023-05-06T15:54:06.056Z,0.70
2023-05-06T15:58:18.597Z,0.90
2023-05-06T16:02:40.157Z,0.70
2023-05-06T16:06:54.142Z,0.80
2023-05-06T16:11:07.762Z,0.68
2023-05-06T16:15:20.669Z,0.40
2023-05-06T16:19:35.632Z,1.17
2023-05-06T16:23:48.075Z,0.90
2023-05-06T16:28:00.705Z,1.02
2023-05-06T16:32:13.179Z,1.20
2023-05-06T16:36:29.288Z,0.93
2023-05-06T16:40:43.561Z,0.80
2023-05-06T16:44:56.222Z,0.80
2023-05-06T16:49:10.881Z,0.82
2023-05-06T16:53:24.621Z,0.80
2023-05-06T16:57:37.402Z,0.80
2023-05-06T17:01:50.771Z,1.00
2023-05-06T17:06:03.278Z,1.00
2023-05-06T17:10:15.701Z,0.80
2023-05-06T17:14:28.172Z,0.80
2023-05-06T17:18:40.580Z,0.80
2023-05-06T17:22:53.275Z,1.00
2023-05-06T17:27:05.813Z,0.80
2023-05-06T17:31:21.180Z,0.75
2023-05-06T17:35:33.851Z,0.80
2023-05-06T17:39:47.099Z,0.75
2023-05-06T17:43:59.624Z,0.85
2023-05-06T17:48:12.177Z,0.80
2023-05-06T17:52:27.720Z,0.63
2023-05-06T17:56:40.156Z,0.77
2023-05-06T18:01:03.600Z,0.80
2023-05-06T18:05:17.636Z,0.88
2023-05-06T18:09:40.118Z,1.00
2023-05-06T18:13:52.543Z,1.00
2023-05-06T18:18:05.172Z,1.10
2023-05-06T18:22:17.919Z,1.02
2023-05-06T18:26:44.624Z,0.82
2023-05-06T18:30:57.666Z,0.80
2023-05-06T18:35:11.759Z,0.63
2023-05-06T18:39:34.511Z,0.65
2023-05-06T18:43:47.060Z,1.02
2023-05-06T18:47:59.569Z,1.00
2023-05-06T18:52:15.255Z,0.77
2023-05-06T18:56:27.727Z,0.90
2023-05-06T19:00:40.210Z,0.88
2023-05-06T19:04:52.709Z,0.88
2023-05-06T19:09:08.610Z,0.70
2023-05-06T19:13:21.486Z,0.85
2023-05-06T19:17:34.008Z,0.70
2023-05-06T19:21:46.580Z,0.82
2023-05-06T19:26:11.899Z,0.80
2023-05-06T19:30:24.432Z,0.60
2023-05-06T19:34:37.912Z,1.00
2023-05-06T19:38:50.388Z,0.85
2023-05-06T19:43:04.720Z,0.90
2023-05-06T19:47:30.193Z,0.90
2023-05-06T19:51:42.920Z,0.88
2023-05-06T19:56:11.325Z,0.90
2023-05-06T20:00:26.137Z,1.08
2023-05-06T20:04:38.650Z,0.85
2023-05-06T20:08:51.392Z,1.05
2023-05-06T20:13:04.723Z,0.80
2023-05-06T20:17:17.928Z,0.73
2023-05-06T20:21:30.517Z,1.50
2023-05-06T20:25:43.121Z,1.00
2023-05-06T20:29:55.659Z,0.80
2023-05-06T20:34:08.166Z,1.10
2023-05-06T20:38:21.449Z,0.98
2023-05-06T20:42:37.062Z,1.00
2023-05-06T20:46:49.477Z,0.70
2023-05-06T20:51:02.184Z,1.08
2023-05-06T20:55:17.494Z,1.15
2023-05-06T20:59:40.007Z,1.20
2023-05-06T21:03:52.591Z,1.30
2023-05-06T21:08:05.335Z,1.30
2023-05-06T21:12:18.396Z,1.20
2023-05-06T21:16:31.614Z,1.30
2023-05-06T21:20:44.134Z,1.35
2023-05-06T21:24:56.866Z,1.50
2023-05-06T21:29:09.430Z,1.17
2023-05-06T21:33:21.882Z,1.10
2023-05-06T21:37:36.368Z,1.27
2023-05-06T21:41:49.420Z,1.25
2023-05-06T21:46:04.863Z,1.40
2023-05-06T21:50:17.420Z,1.80
2023-05-06T21:54:39.808Z,1.30
2023-05-06T21:58:57.984Z,1.40
2023-05-06T22:03:10.505Z,1.50
2023-05-06T22:07:25.624Z,1.40
2023-05-06T22:11:39.209Z,1.67
2023-05-06T22:15:52.899Z,1.58
2023-05-06T22:20:06.790Z,1.73
2023-05-06T22:24:19.625Z,1.42
2023-05-06T22:28:35.065Z,1.60
2023-05-06T22:32:47.649Z,1.35
2023-05-06T22:37:00.975Z,1.60
2023-05-06T22:41:13.785Z,1.70
2023-05-06T22:45:26.213Z,1.40
2023-05-06T22:49:39.150Z,1.30
2023-05-06T22:53:51.726Z,1.48
2023-05-06T22:58:04.244Z,1.40
2023-05-06T23:02:20.931Z,1.40
2023-05-06T23:06:33.569Z,1.58
2023-05-06T23:10:56.020Z,1.42
2023-05-06T23:15:18.467Z,1.35
2023-05-06T23:19:30.946Z,1.98
2023-05-06T23:23:43.383Z,1.60
2023-05-06T23:28:06.457Z,1.80
2023-05-06T23:32:19.027Z,1.67
2023-05-06T23:36:31.652Z,1.88
2023-05-06T23:40:44.126Z,1.77
2023-05-06T23:45:07.352Z,1.50
2023-05-06T23:49:19.853Z,1.73
2023-05-06T23:53:34.111Z,1.90
2023-05-06T23:57:46.840Z,2.00
